Time;durP1;ratioP1;P1;durP2;ratioP2;P2;SDS_P1;SDS_P2;PMS_P1;PMS_P2;Temp;Humidity;BMP_temperature;BMP_pressure;BME280_temperature;BME280_humidity;BME280_pressure;Samples;Min_cycle;Max_cycle;Signal;HPM_P1;HPM_P2
2023/04/21 00:00:27;;;;;;;18.70;13.43;;;;;;;;;;5073483;28;20051;-65
2023/04/21 00:02:54;;;;;;;19.08;14.98;;;;;;;;;;5073413;28;20044;-65
2023/04/21 00:05:22;;;;;;;18.83;14.02;;;;;;;;;;5073272;28;20086;-65
2023/04/21 00:07:50;;;;;;;18.55;14.32;;;;;;;;;;5073323;28;20491;-65
2023/04/21 00:10:17;;;;;;;20.27;14.82;;;;;;;;;;5073289;28;20033;-65
2023/04/21 00:12:45;;;;;;;17.95;13.95;;;;;;;;;;5073328;28;20103;-65
2023/04/21 00:15:12;;;;;;;19.45;15.25;;;;;;;;;;5072454;28;20040;-65
2023/04/21 00:17:40;;;;;;;19.00;14.85;;;;;;;;;;5073171;28;20041;-65
2023/04/21 00:20:09;;;;;;;19.60;14.50;;;;;;;;;;5073140;28;20402;-65
2023/04/21 00:22:37;;;;;;;28.38;15.55;;;;;;;;;;5071579;28;20505;-65
2023/04/21 00:25:04;;;;;;;23.15;15.60;;;;;;;;;;5073048;28;20044;-65
2023/04/21 00:27:32;;;;;;;21.63;15.13;;;;;;;;;;5072832;28;20195;-65
2023/04/21 00:29:59;;;;;;;19.50;14.80;;;;;;;;;;5055288;28;20079;-65
2023/04/21 00:32:27;;;;;;;19.83;14.75;;;;;;;;;;5072991;28;20064;-65
2023/04/21 00:34:56;;;;;;;18.75;15.32;;;;;;;;;;5071495;28;20064;-65
2023/04/21 00:37:24;;;;;;;19.92;14.70;;;;;;;;;;5072868;28;20067;-65
2023/04/21 00:39:52;;;;;;;22.83;16.15;;;;;;;;;;5072811;28;20040;-65
2023/04/21 00:42:19;;;;;;;22.05;15.93;;;;;;;;;;5071524;28;20063;-66
2023/04/21 00:44:47;;;;;;;24.77;18.00;;;;;;;;;;5071614;28;20436;-66
2023/04/21 00:47:15;;;;;;;24.77;16.75;;;;;;;;;;5038365;28;20052;-67
2023/04/21 00:49:42;;;;;;;23.30;16.20;;;;;;;;;;5072683;28;20037;-66
2023/04/21 00:52:10;;;;;;;22.60;17.08;;;;;;;;;;5072986;28;20044;-66
2023/04/21 00:54:37;;;;;;;21.52;16.25;;;;;;;;;;5071337;28;20172;-66
2023/04/21 00:57:06;;;;;;;22.73;17.25;;;;;;;;;;5071340;28;20464;-66
2023/04/21 00:59:35;;;;;;;23.73;17.45;;;;;;;;;;5071300;28;20050;-66
2023/04/21 01:02:02;;;;;;;22.13;16.00;;;;;;;;;;5054667;28;20480;-66
2023/04/21 01:04:37;;;;;;;20.85;15.43;;;;;;;;;;5071315;28;20047;-66
2023/04/21 01:07:06;;;;;;;22.88;15.52;;;;;;;;;;5071104;28;20048;-66
2023/04/21 01:09:34;;;;;;;22.38;15.35;;;;;;;;;;5071151;28;20482;-66
2023/04/21 01:12:05;;;;;;;18.67;13.70;;;;;;;;;;5070773;28;20048;-66
2023/04/21 01:14:34;;;;;;;17.77;13.73;;;;;;;;;;5072490;28;20045;-66
2023/04/21 01:17:06;;;;;;;17.08;13.88;;;;;;;;;;5071138;28;20473;-66
2023/04/21 01:19:38;;;;;;;19.52;13.80;;;;;;;;;;5072500;28;20040;-66
2023/04/21 01:22:10;;;;;;;16.90;13.18;;;;;;;;;;5071326;28;20068;-66
2023/04/21 01:24:37;;;;;;;16.25;13.18;;;;;;;;;;5071150;28;20079;-66
2023/04/21 01:27:09;;;;;;;19.63;14.02;;;;;;;;;;5072531;28;20094;-66
2023/04/21 01:29:37;;;;;;;18.35;13.98;;;;;;;;;;5075207;28;20045;-66
2023/04/21 01:32:11;;;;;;;19.15;13.75;;;;;;;;;;5075090;28;20098;-66
2023/04/21 01:34:40;;;;;;;17.17;12.90;;;;;;;;;;5076463;28;20508;-66
2023/04/21 01:37:14;;;;;;;17.05;13.15;;;;;;;;;;5076317;28;20052;-66
2023/04/21 01:39:43;;;;;;;18.67;13.80;;;;;;;;;;5075056;28;20036;-66
2023/04/21 01:42:11;;;;;;;19.40;13.82;;;;;;;;;;5074763;28;20494;-66
2023/04/21 01:44:39;;;;;;;19.90;13.73;;;;;;;;;;5074867;28;20044;-66
2023/04/21 01:47:06;;;;;;;18.65;13.52;;;;;;;;;;5074686;28;20041;-66
2023/04/21 01:49:34;;;;;;;18.05;14.13;;;;;;;;;;5075876;28;20451;-66
2023/04/21 01:52:01;;;;;;;19.45;14.93;;;;;;;;;;5074737;28;20075;-66
2023/04/21 01:54:29;;;;;;;20.73;14.95;;;;;;;;;;5074677;28;20094;-66
2023/04/21 01:56:56;;;;;;;21.92;15.43;;;;;;;;;;5074369;28;20059;-66
2023/04/21 01:59:24;;;;;;;20.10;15.75;;;;;;;;;;5074478;28;20051;-66
2023/04/21 02:01:52;;;;;;;21.90;15.30;;;;;;;;;;5057706;28;20098;-66
2023/04/21 02:04:19;;;;;;;24.70;15.98;;;;;;;;;;5074451;28;20110;-66
2023/04/21 02:06:47;;;;;;;21.40;15.63;;;;;;;;;;5074100;28;20082;-66
2023/04/21 02:09:15;;;;;;;19.52;15.55;;;;;;;;;;5075651;28;20088;-66
2023/04/21 02:11:42;;;;;;;22.08;15.85;;;;;;;;;;5075648;28;20068;-66
2023/04/21 02:14:10;;;;;;;26.58;17.33;;;;;;;;;;5074267;28;20127;-66
2023/04/21 02:16:39;;;;;;;25.10;17.38;;;;;;;;;;5074259;28;20041;-66
2023/04/21 02:19:07;;;;;;;23.35;17.88;;;;;;;;;;5074175;28;20102;-66
2023/04/21 02:21:35;;;;;;;22.60;17.02;;;;;;;;;;5074214;28;20094;-66
2023/04/21 02:24:02;;;;;;;24.27;17.00;;;;;;;;;;5075511;28;20397;-66
2023/04/21 02:26:30;;;;;;;24.40;17.08;;;;;;;;;;5073900;28;20041;-66
2023/04/21 02:29:00;;;;;;;23.90;17.52;;;;;;;;;;5073991;28;20049;-66
2023/04/21 02:31:27;;;;;;;28.17;18.88;;;;;;;;;;5074009;28;20045;-66
2023/04/21 02:33:55;;;;;;;27.38;18.17;;;;;;;;;;5073883;28;20441;-66
2023/04/21 02:36:22;;;;;;;26.60;18.48;;;;;;;;;;5075111;28;20036;-66
2023/04/21 02:38:50;;;;;;;28.45;18.38;;;;;;;;;;5072754;28;20091;-66
2023/04/21 02:41:18;;;;;;;25.35;17.15;;;;;;;;;;5073770;28;20045;-66
2023/04/21 02:43:45;;;;;;;23.88;16.83;;;;;;;;;;5074073;28;20060;-66
2023/04/21 02:46:13;;;;;;;22.95;17.10;;;;;;;;;;5073612;28;20051;-66
2023/04/21 02:48:40;;;;;;;25.20;16.02;;;;;;;;;;5073518;28;20052;-66
2023/04/21 02:51:12;;;;;;;21.10;15.60;;;;;;;;;;5073612;28;20060;-66
2023/04/21 02:53:40;;;;;;;18.00;14.52;;;;;;;;;;5074773;28;20119;-66
2023/04/21 02:56:08;;;;;;;20.75;15.65;;;;;;;;;;5074877;28;20123;-66
2023/04/21 02:58:36;;;;;;;21.60;15.05;;;;;;;;;;5073196;28;20056;-66
2023/04/21 03:01:04;;;;;;;20.15;14.50;;;;;;;;;;5074652;28;20074;-66
2023/04/21 03:03:34;;;;;;;20.30;14.75;;;;;;;;;;5086589;28;20052;-66
2023/04/21 03:06:04;;;;;;;20.75;15.45;;;;;;;;;;5094782;28;20067;-66
2023/04/21 03:08:31;;;;;;;20.33;15.52;;;;;;;;;;5094540;28;20040;-66
2023/04/21 03:11:00;;;;;;;21.60;15.07;;;;;;;;;;5076426;28;20048;-66
2023/04/21 03:13:27;;;;;;;22.48;16.08;;;;;;;;;;5076314;28;20144;-66
2023/04/21 03:15:56;;;;;;;22.20;15.25;;;;;;;;;;5076451;28;20436;-66
2023/04/21 03:18:23;;;;;;;23.20;14.80;;;;;;;;;;5094473;28;20039;-66
2023/04/21 03:20:51;;;;;;;20.17;14.77;;;;;;;;;;5093207;28;20486;-66
2023/04/21 03:23:18;;;;;;;21.35;16.13;;;;;;;;;;5094313;28;20150;-66
2023/04/21 03:25:46;;;;;;;24.23;16.95;;;;;;;;;;5076303;28;20036;-66
2023/04/21 03:28:14;;;;;;;26.00;16.92;;;;;;;;;;5092979;28;20052;-66
2023/04/21 03:30:42;;;;;;;26.65;17.63;;;;;;;;;;5093168;28;20429;-66
2023/04/21 03:33:09;;;;;;;27.30;18.20;;;;;;;;;;5076157;28;20094;-66
2023/04/21 03:35:37;;;;;;;26.08;19.17;;;;;;;;;;5092892;28;20535;-66
2023/04/21 03:38:07;;;;;;;30.25;20.92;;;;;;;;;;5092831;28;20506;-66
2023/04/21 03:40:35;;;;;;;28.85;21.40;;;;;;;;;;5082193;28;20044;-66
2023/04/21 03:43:03;;;;;;;25.90;20.98;;;;;;;;;;5092859;28;20044;-66
2023/04/21 03:45:34;;;;;;;25.60;20.75;;;;;;;;;;5109688;28;20055;-66
2023/04/21 03:48:02;;;;;;;28.48;21.35;;;;;;;;;;5092585;28;20452;-66
2023/04/21 03:50:30;;;;;;;29.98;21.05;;;;;;;;;;5092404;28;20043;-66
2023/04/21 03:52:57;;;;;;;30.30;21.75;;;;;;;;;;5087066;28;20045;-65
2023/04/21 03:55:25;;;;;;;27.75;20.08;;;;;;;;;;5073717;28;20059;-65
2023/04/21 03:57:52;;;;;;;26.40;19.60;;;;;;;;;;5073480;28;20056;-66
2023/04/21 04:00:20;;;;;;;21.92;17.35;;;;;;;;;;5073562;28;20045;-66
2023/04/21 04:02:47;;;;;;;21.70;15.68;;;;;;;;;;5073433;28;20046;-66
2023/04/21 04:05:15;;;;;;;17.70;14.65;;;;;;;;;;5073427;28;20045;-66
2023/04/21 04:07:44;;;;;;;18.10;15.00;;;;;;;;;;5073389;28;20045;-66
2023/04/21 04:10:12;;;;;;;17.90;13.82;;;;;;;;;;5073337;28;20036;-66
2023/04/21 04:12:39;;;;;;;17.92;14.35;;;;;;;;;;5072065;28;20553;-66
2023/04/21 04:15:07;;;;;;;20.75;15.35;;;;;;;;;;5073257;28;20043;-66
2023/04/21 04:17:34;;;;;;;22.42;15.63;;;;;;;;;;5072994;28;20046;-66
2023/04/21 04:20:03;;;;;;;18.27;14.85;;;;;;;;;;5073359;28;20408;-66
2023/04/21 04:22:30;;;;;;;19.48;13.63;;;;;;;;;;5073128;28;20040;-65
2023/04/21 04:25:00;;;;;;;18.45;13.68;;;;;;;;;;5072939;28;20048;-65
2023/04/21 04:27:28;;;;;;;17.05;13.57;;;;;;;;;;5072781;28;20048;-66
2023/04/21 04:29:56;;;;;;;15.20;12.85;;;;;;;;;;5055434;28;20062;-65
2023/04/21 04:32:27;;;;;;;15.40;12.73;;;;;;;;;;5072803;28;20040;-66
2023/04/21 04:34:55;;;;;;;14.15;12.38;;;;;;;;;;5072881;28;20040;-66
2023/04/21 04:37:24;;;;;;;18.10;13.27;;;;;;;;;;5072935;28;20052;-64
2023/04/21 04:39:54;;;;;;;18.98;13.35;;;;;;;;;;5071449;28;20043;-63
2023/04/21 04:42:21;;;;;;;15.70;12.93;;;;;;;;;;5071919;28;20048;-65
2023/04/21 04:44:52;;;;;;;16.63;13.85;;;;;;;;;;5085926;28;20442;-65
2023/04/21 04:47:20;;;;;;;15.57;13.35;;;;;;;;;;5092366;28;20040;-65
2023/04/21 04:49:48;;;;;;;15.60;12.05;;;;;;;;;;5091076;28;20040;-65
2023/04/21 04:52:15;;;;;;;14.32;11.50;;;;;;;;;;5092449;28;20040;-65
2023/04/21 04:54:43;;;;;;;17.33;13.23;;;;;;;;;;5092854;28;20040;-65
2023/04/21 04:57:10;;;;;;;14.88;11.90;;;;;;;;;;5092884;28;20048;-66
2023/04/21 04:59:38;;;;;;;13.38;11.38;;;;;;;;;;5092991;28;20512;-66
2023/04/21 05:02:07;;;;;;;14.98;11.02;;;;;;;;;;5092635;28;20066;-65
2023/04/21 05:04:34;;;;;;;14.32;11.93;;;;;;;;;;5092778;28;20040;-65
2023/04/21 05:07:02;;;;;;;15.98;11.88;;;;;;;;;;5092659;28;20032;-65
2023/04/21 05:09:30;;;;;;;13.82;11.63;;;;;;;;;;5092714;28;20425;-65
2023/04/21 05:11:57;;;;;;;13.70;11.23;;;;;;;;;;5092858;28;20038;-65
2023/04/21 05:14:25;;;;;;;15.18;11.60;;;;;;;;;;5092746;28;20046;-65
2023/04/21 05:16:52;;;;;;;13.93;11.82;;;;;;;;;;5092650;28;20044;-65
2023/04/21 05:19:20;;;;;;;15.27;11.70;;;;;;;;;;5092650;28;20040;-65
2023/04/21 05:21:47;;;;;;;13.25;11.85;;;;;;;;;;5092899;28;20047;-65
2023/04/21 05:24:15;;;;;;;13.82;11.70;;;;;;;;;;5092465;28;20062;-66
2023/04/21 05:26:42;;;;;;;16.23;12.40;;;;;;;;;;5092600;28;20119;-66
2023/04/21 05:29:10;;;;;;;16.17;12.70;;;;;;;;;;5092575;28;20085;-66
2023/04/21 05:31:37;;;;;;;17.60;13.82;;;;;;;;;;5092493;28;20122;-66
2023/04/21 05:34:05;;;;;;;15.10;12.23;;;;;;;;;;5092565;28;20379;-66
2023/04/21 05:36:33;;;;;;;13.50;11.75;;;;;;;;;;5092876;28;20068;-66
2023/04/21 05:39:00;;;;;;;14.23;10.93;;;;;;;;;;5092527;28;20382;-66
2023/04/21 05:41:27;;;;;;;12.95;10.80;;;;;;;;;;5092529;28;20044;-66
2023/04/21 05:43:55;;;;;;;11.57;9.57;;;;;;;;;;5092483;28;20089;-66
2023/04/21 05:46:22;;;;;;;11.02;9.75;;;;;;;;;;5092466;28;20115;-66
2023/04/21 05:48:50;;;;;;;11.00;9.85;;;;;;;;;;5092340;28;20123;-66
2023/04/21 05:51:17;;;;;;;9.38;8.38;;;;;;;;;;5092226;28;20405;-66
2023/04/21 05:53:46;;;;;;;8.18;6.82;;;;;;;;;;5092520;28;20434;-67
2023/04/21 05:56:13;;;;;;;9.27;6.93;;;;;;;;;;5092152;28;20048;-66
2023/04/21 05:58:41;;;;;;;8.52;7.05;;;;;;;;;;5074018;28;20390;-66
2023/04/21 06:01:08;;;;;;;7.57;5.97;;;;;;;;;;5092244;28;20036;-66
2023/04/21 06:03:36;;;;;;;6.85;5.57;;;;;;;;;;5092310;28;20044;-66
2023/04/21 06:06:04;;;;;;;7.53;5.32;;;;;;;;;;5107860;28;20036;-66
2023/04/21 06:08:32;;;;;;;5.82;5.22;;;;;;;;;;5092114;28;20040;-66
2023/04/21 06:10:59;;;;;;;6.57;5.55;;;;;;;;;;5092427;28;20105;-67
2023/04/21 06:13:27;;;;;;;7.50;5.43;;;;;;;;;;5093932;28;20036;-67
2023/04/21 06:15:57;;;;;;;7.78;5.32;;;;;;;;;;5095819;28;20071;-67
2023/04/21 06:18:26;;;;;;;6.80;5.47;;;;;;;;;;5095737;28;20037;-67
2023/04/21 06:20:54;;;;;;;7.75;5.30;;;;;;;;;;5095581;28;20512;-66
2023/04/21 06:23:22;;;;;;;6.68;5.82;;;;;;;;;;5095833;28;20416;-67
2023/04/21 06:26:00;;;;;;;6.10;5.47;;;;;;;;;;5095571;28;20509;-66
2023/04/21 06:28:27;;;;;;;7.07;4.80;;;;;;;;;;5095445;28;20075;-67
2023/04/21 06:30:55;;;;;;;6.80;4.95;;;;;;;;;;5095610;28;20101;-67
2023/04/21 06:33:22;;;;;;;5.68;4.40;;;;;;;;;;5095557;28;20036;-65
2023/04/21 06:35:49;;;;;;;5.72;4.15;;;;;;;;;;5095593;28;20089;-66
2023/04/21 06:38:17;;;;;;;7.35;4.95;;;;;;;;;;5095501;28;20081;-66
2023/04/21 06:40:44;;;;;;;4.68;4.18;;;;;;;;;;5095402;28;20291;-65
2023/04/21 06:43:12;;;;;;;6.50;3.92;;;;;;;;;;5095664;28;20080;-65
2023/04/21 06:45:39;;;;;;;5.22;4.15;;;;;;;;;;5095239;28;20044;-66
2023/04/21 06:48:07;;;;;;;5.30;4.30;;;;;;;;;;5095343;28;20036;-66
2023/04/21 06:50:34;;;;;;;6.70;3.90;;;;;;;;;;5095196;28;20123;-66
2023/04/21 06:53:02;;;;;;;5.78;4.43;;;;;;;;;;5095502;28;20402;-65
2023/04/21 06:55:29;;;;;;;7.45;4.22;;;;;;;;;;5095222;28;20044;-66
2023/04/21 06:57:57;;;;;;;5.00;3.67;;;;;;;;;;5093620;28;20052;-66
2023/04/21 07:00:24;;;;;;;5.00;3.50;;;;;;;;;;5094948;28;20040;-66
2023/04/21 07:02:52;;;;;;;5.07;3.78;;;;;;;;;;5094892;28;20052;-67
2023/04/21 07:05:20;;;;;;;5.30;3.80;;;;;;;;;;5094953;28;20040;-66
2023/04/21 07:07:47;;;;;;;6.72;5.07;;;;;;;;;;5094868;28;20044;-66
2023/04/21 07:10:18;;;;;;;8.10;4.50;;;;;;;;;;5094887;28;20075;-66
2023/04/21 07:12:45;;;;;;;6.03;4.15;;;;;;;;;;5094943;28;20040;-66
2023/04/21 07:15:13;;;;;;;6.25;4.68;;;;;;;;;;5094546;28;20032;-66
2023/04/21 07:17:40;;;;;;;7.28;4.18;;;;;;;;;;5094586;28;20040;-66
2023/04/21 07:20:08;;;;;;;5.15;3.47;;;;;;;;;;5094652;28;20127;-66
2023/04/21 07:22:36;;;;;;;4.25;3.00;;;;;;;;;;5094580;28;20040;-66
2023/04/21 07:25:07;;;;;;;4.97;3.65;;;;;;;;;;5093921;28;20086;-66
2023/04/21 07:27:35;;;;;;;5.68;3.30;;;;;;;;;;5094422;28;20038;-66
2023/04/21 07:30:04;;;;;;;5.38;3.97;;;;;;;;;;5094368;28;20494;-66
2023/04/21 07:32:32;;;;;;;5.38;4.03;;;;;;;;;;5094198;28;20080;-66
2023/04/21 07:35:00;;;;;;;6.40;3.80;;;;;;;;;;5094417;28;20036;-66
2023/04/21 07:37:28;;;;;;;6.82;3.35;;;;;;;;;;5094317;28;20123;-65
2023/04/21 07:39:55;;;;;;;4.13;3.10;;;;;;;;;;5092842;28;20435;-65
2023/04/21 07:42:25;;;;;;;6.07;3.03;;;;;;;;;;5094073;28;20056;-65
2023/04/21 07:44:54;;;;;;;6.60;3.67;;;;;;;;;;5094159;28;20044;-66
2023/04/21 07:47:22;;;;;;;8.27;4.40;;;;;;;;;;5094142;28;20043;-66
2023/04/21 07:49:50;;;;;;;6.20;4.32;;;;;;;;;;5092807;28;20040;-66
2023/04/21 07:52:17;;;;;;;7.38;4.07;;;;;;;;;;5094043;28;20032;-66
2023/04/21 07:54:45;;;;;;;6.03;4.20;;;;;;;;;;5093976;28;20563;-65
2023/04/21 07:57:12;;;;;;;7.03;4.13;;;;;;;;;;5093742;28;20497;-66
2023/04/21 07:59:39;;;;;;;6.18;3.70;;;;;;;;;;5093661;28;20386;-66
2023/04/21 08:02:07;;;;;;;4.45;3.45;;;;;;;;;;5093659;28;20127;-66
2023/04/21 08:04:35;;;;;;;8.63;4.22;;;;;;;;;;5093688;28;20146;-66
2023/04/21 08:07:03;;;;;;;8.10;5.20;;;;;;;;;;5093418;28;20047;-66
2023/04/21 08:09:30;;;;;;;7.70;5.13;;;;;;;;;;5093295;28;20043;-66
2023/04/21 08:11:58;;;;;;;13.40;10.38;;;;;;;;;;5093351;28;20073;-66
2023/04/21 08:14:26;;;;;;;8.80;5.78;;;;;;;;;;5093443;28;20047;-66
2023/04/21 08:16:54;;;;;;;7.25;5.78;;;;;;;;;;5093528;28;20219;-66
2023/04/21 08:19:23;;;;;;;8.05;5.75;;;;;;;;;;5092215;28;20393;-66
2023/04/21 08:21:51;;;;;;;9.23;7.95;;;;;;;;;;5093479;28;20101;-66
2023/04/21 08:24:19;;;;;;;8.30;7.20;;;;;;;;;;5093518;28;20035;-66
2023/04/21 08:26:47;;;;;;;8.95;6.82;;;;;;;;;;5093692;28;20123;-66
2023/04/21 08:29:15;;;;;;;9.05;7.60;;;;;;;;;;5093470;28;20409;-65
2023/04/21 08:31:42;;;;;;;9.95;7.55;;;;;;;;;;5093336;28;20048;-66
2023/04/21 08:34:10;;;;;;;11.93;7.88;;;;;;;;;;5093541;28;20040;-66
2023/04/21 08:36:37;;;;;;;8.43;7.10;;;;;;;;;;5092293;28;20044;-66
2023/04/21 08:39:05;;;;;;;9.32;7.10;;;;;;;;;;5093045;28;20513;-65
2023/04/21 08:41:32;;;;;;;10.57;7.93;;;;;;;;;;5093204;28;20064;-66
2023/04/21 08:44:00;;;;;;;9.43;6.10;;;;;;;;;;5093146;28;20040;-66
2023/04/21 08:46:27;;;;;;;9.02;7.25;;;;;;;;;;5093082;28;20111;-65
2023/04/21 08:48:58;;;;;;;12.48;9.20;;;;;;;;;;5092901;28;20421;-65
2023/04/21 08:51:27;;;;;;;14.40;10.82;;;;;;;;;;5093014;28;20089;-65
2023/04/21 08:53:55;;;;;;;13.07;6.90;;;;;;;;;;5093023;28;20093;-66
2023/04/21 08:56:25;;;;;;;10.27;6.65;;;;;;;;;;5092875;28;20101;-66
2023/04/21 08:58:53;;;;;;;8.73;6.35;;;;;;;;;;5108332;28;20048;-66
2023/04/21 09:01:21;;;;;;;13.15;7.40;;;;;;;;;;5092785;28;20036;-65
2023/04/21 09:03:48;;;;;;;9.15;6.30;;;;;;;;;;5092786;28;20111;-65
2023/04/21 09:06:16;;;;;;;9.32;6.25;;;;;;;;;;5108606;28;20156;-66
2023/04/21 09:08:54;;;;;;;11.25;5.57;;;;;;;;;;5092712;28;20063;-66
2023/04/21 09:11:22;;;;;;;9.55;6.30;;;;;;;;;;5092792;28;20490;-65
2023/04/21 09:13:49;;;;;;;12.02;5.68;;;;;;;;;;5092653;28;20067;-66
2023/04/21 09:16:19;;;;;;;8.57;5.60;;;;;;;;;;5092646;28;20082;-65
2023/04/21 09:18:47;;;;;;;9.65;5.40;;;;;;;;;;5092885;28;20451;-65
2023/04/21 09:21:16;;;;;;;7.95;5.28;;;;;;;;;;5092669;28;20098;-65
2023/04/21 09:23:47;;;;;;;7.65;4.90;;;;;;;;;;5092547;28;20036;-65
2023/04/21 09:26:16;;;;;;;6.70;4.88;;;;;;;;;;5092779;28;20040;-65
2023/04/21 09:28:44;;;;;;;6.35;4.32;;;;;;;;;;5092623;28;20115;-65
2023/04/21 09:31:14;;;;;;;6.38;4.32;;;;;;;;;;5092658;28;20048;-65
2023/04/21 09:33:48;;;;;;;10.32;4.20;;;;;;;;;;5092816;28;20048;-65
2023/04/21 09:36:26;;;;;;;8.50;5.40;;;;;;;;;;5075243;28;20493;-65
2023/04/21 09:38:54;;;;;;;11.43;5.15;;;;;;;;;;5092475;28;20106;-65
2023/04/21 09:41:43;;;;;;;8.30;5.22;;;;;;;;;;5092323;28;20051;-66
2023/04/21 09:44:11;;;;;;;9.43;4.68;;;;;;;;;;5091056;28;20040;-66
2023/04/21 09:46:38;;;;;;;9.98;4.50;;;;;;;;;;5092336;28;20044;-66
2023/04/21 09:49:06;;;;;;;6.97;4.05;;;;;;;;;;5095228;28;20551;-66
2023/04/21 09:51:34;;;;;;;8.18;4.00;;;;;;;;;;5096300;28;20409;-66
2023/04/21 09:54:12;;;;;;;7.85;3.90;;;;;;;;;;5096251;28;20040;-66
2023/04/21 09:56:58;;;;;;;7.13;3.55;;;;;;;;;;5096007;28;20111;-67
2023/04/21 09:59:27;;;;;;;6.85;3.28;;;;;;;;;;5095969;28;20398;-66
2023/04/21 10:01:55;;;;;;;6.20;3.15;;;;;;;;;;5096058;28;20040;-66
2023/04/21 10:04:24;;;;;;;11.98;3.97;;;;;;;;;;5096030;28;20044;-66
2023/04/21 10:06:53;;;;;;;6.40;3.83;;;;;;;;;;5095935;28;20371;-66
2023/04/21 10:09:22;;;;;;;12.45;4.47;;;;;;;;;;5095993;28;20068;-65
2023/04/21 10:11:49;;;;;;;7.03;3.53;;;;;;;;;;5095796;28;20536;-65
2023/04/21 10:14:17;;;;;;;8.35;3.10;;;;;;;;;;5095739;28;20044;-65
2023/04/21 10:16:55;;;;;;;8.60;3.17;;;;;;;;;;5095856;28;20554;-65
2023/04/21 10:19:26;;;;;;;7.85;3.28;;;;;;;;;;5095615;28;20047;-65
2023/04/21 10:21:57;;;;;;;5.55;2.80;;;;;;;;;;5095742;28;20551;-65
2023/04/21 10:24:28;;;;;;;7.15;2.90;;;;;;;;;;5095970;28;20134;-65
2023/04/21 10:27:00;;;;;;;6.85;3.38;;;;;;;;;;5095645;28;20418;-66
2023/04/21 10:29:29;;;;;;;4.85;2.63;;;;;;;;;;5095621;28;20048;-65
2023/04/21 10:32:31;;;;;;;11.73;3.35;;;;;;;;;;5096722;28;20101;-65
2023/04/21 10:34:58;;;;;;;6.47;2.92;;;;;;;;;;5095536;28;20107;-66
2023/04/21 10:37:26;;;;;;;10.93;3.38;;;;;;;;;;5094001;28;20424;-66
2023/04/21 10:39:54;;;;;;;5.65;3.35;;;;;;;;;;5095234;28;20064;-66
2023/04/21 10:42:23;;;;;;;6.78;3.10;;;;;;;;;;5095324;28;20068;-66
2023/04/21 10:44:57;;;;;;;7.07;3.20;;;;;;;;;;5095376;28;20043;-66
2023/04/21 10:47:36;;;;;;;6.15;2.92;;;;;;;;;;5095100;28;20048;-66
2023/04/21 10:50:15;;;;;;;7.78;2.92;;;;;;;;;;5095239;28;20044;-66
2023/04/21 10:52:44;;;;;;;8.23;3.53;;;;;;;;;;5095184;28;20040;-66
2023/04/21 10:55:14;;;;;;;6.10;3.00;;;;;;;;;;5095243;28;20158;-66
2023/04/21 10:57:43;;;;;;;7.55;3.13;;;;;;;;;;5094950;28;20715;-66
2023/04/21 11:00:11;;;;;;;9.88;3.35;;;;;;;;;;5094144;28;20043;-66
2023/04/21 11:02:39;;;;;;;8.88;3.10;;;;;;;;;;5095086;28;20036;-66
2023/04/21 11:05:10;;;;;;;7.28;3.17;;;;;;;;;;5095019;28;20072;-67
2023/04/21 11:07:38;;;;;;;11.82;3.47;;;;;;;;;;5094854;28;20494;-66
2023/04/21 11:10:10;;;;;;;6.28;3.30;;;;;;;;;;5094790;28;20097;-66
2023/04/21 11:12:38;;;;;;;7.05;3.17;;;;;;;;;;5095045;28;20402;-66
2023/04/21 11:15:07;;;;;;;8.43;2.80;;;;;;;;;;5094687;28;20040;-66
2023/04/21 11:17:37;;;;;;;8.38;3.53;;;;;;;;;;5094565;28;20097;-66
2023/04/21 11:20:05;;;;;;;9.60;3.10;;;;;;;;;;5094882;28;20127;-66
2023/04/21 11:22:36;;;;;;;9.25;3.13;;;;;;;;;;5094858;28;20440;-66
2023/04/21 11:25:04;;;;;;;10.55;3.33;;;;;;;;;;5094714;28;20396;-66
2023/04/21 11:27:31;;;;;;;6.28;2.70;;;;;;;;;;5094548;28;20115;-66
2023/04/21 11:30:02;;;;;;;5.00;3.03;;;;;;;;;;5093177;28;20044;-66
2023/04/21 11:32:30;;;;;;;9.20;3.78;;;;;;;;;;5094297;28;20043;-66
2023/04/21 11:34:57;;;;;;;5.45;2.78;;;;;;;;;;5094255;28;20393;-66
2023/04/21 11:37:26;;;;;;;10.23;3.55;;;;;;;;;;5094220;28;20046;-66
2023/04/21 11:39:58;;;;;;;21.45;7.22;;;;;;;;;;5076268;28;20114;-66
2023/04/21 11:42:26;;;;;;;9.18;4.63;;;;;;;;;;5093425;28;20036;-66
2023/04/21 11:44:58;;;;;;;8.57;3.25;;;;;;;;;;5075546;28;20044;-66
2023/04/21 11:47:26;;;;;;;7.97;3.03;;;;;;;;;;5093922;28;20064;-66
2023/04/21 11:49:55;;;;;;;6.53;3.33;;;;;;;;;;5093958;28;20066;-67
2023/04/21 11:52:27;;;;;;;6.57;3.28;;;;;;;;;;5093788;28;20051;-64
2023/04/21 11:54:55;;;;;;;13.38;3.15;;;;;;;;;;5094079;28;20048;-65
2023/04/21 11:57:24;;;;;;;8.38;2.88;;;;;;;;;;5073898;28;20506;-65
2023/04/21 11:59:52;;;;;;;11.27;2.90;;;;;;;;;;5072514;28;20032;-65
2023/04/21 12:02:24;;;;;;;10.02;3.25;;;;;;;;;;5083103;28;20040;-65
2023/04/21 12:05:05;;;;;;;5.55;2.92;;;;;;;;;;5076050;28;20044;-65
2023/04/21 12:07:34;;;;;;;8.18;2.97;;;;;;;;;;5072720;28;20479;-64
2023/04/21 12:10:02;;;;;;;7.22;3.20;;;;;;;;;;5072884;28;20041;-65
2023/04/21 12:12:30;;;;;;;9.10;3.47;;;;;;;;;;5072400;28;20067;-64
2023/04/21 12:14:58;;;;;;;7.47;3.20;;;;;;;;;;5073856;28;20036;-65
2023/04/21 12:17:25;;;;;;;9.38;3.97;;;;;;;;;;5072646;28;20040;-64
2023/04/21 12:19:52;;;;;;;11.38;4.20;;;;;;;;;;5077621;28;20048;-64
2023/04/21 12:22:22;;;;;;;12.77;4.82;;;;;;;;;;5072346;28;20045;-64
2023/04/21 12:24:49;;;;;;;12.43;4.50;;;;;;;;;;5072495;28;20072;-64
2023/04/21 12:27:18;;;;;;;8.35;3.80;;;;;;;;;;5072501;28;20071;-65
2023/04/21 12:29:45;;;;;;;7.35;3.55;;;;;;;;;;5072352;28;21119;-65
2023/04/21 12:32:12;;;;;;;9.45;3.50;;;;;;;;;;5082554;28;20052;-65
2023/04/21 12:34:40;;;;;;;11.10;4.15;;;;;;;;;;5092679;28;20069;-64
2023/04/21 12:37:08;;;;;;;13.55;3.13;;;;;;;;;;5092855;28;20047;-65
2023/04/21 12:39:35;;;;;;;11.02;3.25;;;;;;;;;;5080913;28;20394;-66
2023/04/21 12:42:03;;;;;;;7.68;3.33;;;;;;;;;;5074741;28;20090;-65
2023/04/21 12:44:31;;;;;;;6.22;2.60;;;;;;;;;;5072343;28;20068;-65
2023/04/21 12:46:58;;;;;;;7.43;2.72;;;;;;;;;;5072018;28;20502;-65
2023/04/21 12:49:26;;;;;;;10.20;2.75;;;;;;;;;;5072322;28;20037;-65
2023/04/21 12:51:53;;;;;;;10.82;3.55;;;;;;;;;;5072219;28;20040;-65
2023/04/21 12:54:21;;;;;;;10.02;2.92;;;;;;;;;;5072273;28;20108;-65
2023/04/21 12:56:56;;;;;;;9.18;2.80;;;;;;;;;;5071797;28;20098;-67
2023/04/21 12:59:24;;;;;;;8.52;3.10;;;;;;;;;;5071898;28;20500;-65
2023/04/21 13:01:51;;;;;;;8.15;3.28;;;;;;;;;;5072219;28;20040;-65
2023/04/21 13:04:19;;;;;;;10.25;3.72;;;;;;;;;;5071635;28;20029;-66
2023/04/21 13:06:47;;;;;;;9.27;3.17;;;;;;;;;;5071380;28;20033;-66
2023/04/21 13:09:15;;;;;;;8.35;3.40;;;;;;;;;;5072375;28;20036;-65
2023/04/21 13:11:43;;;;;;;5.97;2.80;;;;;;;;;;5072371;28;20037;-65
2023/04/21 13:14:10;;;;;;;9.50;2.65;;;;;;;;;;5054391;28;20056;-66
2023/04/21 13:16:38;;;;;;;12.20;3.88;;;;;;;;;;5072535;28;20102;-65
2023/04/21 13:19:05;;;;;;;12.48;3.92;;;;;;;;;;5072218;28;20032;-66
2023/04/21 13:21:33;;;;;;;10.13;3.30;;;;;;;;;;5072326;28;20090;-66
2023/04/21 13:24:01;;;;;;;7.15;2.72;;;;;;;;;;5057698;28;20110;-66
2023/04/21 13:26:32;;;;;;;12.02;5.00;;;;;;;;;;5076275;28;20070;-66
2023/04/21 13:28:59;;;;;;;7.57;3.20;;;;;;;;;;5076119;28;20041;-66
2023/04/21 13:31:26;;;;;;;8.52;2.88;;;;;;;;;;5076520;28;20048;-66
2023/04/21 13:33:54;;;;;;;8.20;3.03;;;;;;;;;;5076383;28;20041;-65
2023/04/21 13:36:21;;;;;;;10.65;3.33;;;;;;;;;;5076139;28;20051;-66
2023/04/21 13:38:49;;;;;;;8.38;2.88;;;;;;;;;;5076062;28;20041;-66
2023/04/21 13:41:17;;;;;;;13.43;3.17;;;;;;;;;;5076103;28;20040;-66
2023/04/21 13:43:45;;;;;;;9.32;3.10;;;;;;;;;;5076065;28;20393;-67
2023/04/21 13:46:13;;;;;;;8.65;2.95;;;;;;;;;;5075948;28;20051;-66
2023/04/21 13:48:41;;;;;;;17.27;8.85;;;;;;;;;;5076082;28;20037;-66
2023/04/21 13:51:08;;;;;;;7.00;3.17;;;;;;;;;;5076054;28;20052;-66
2023/04/21 13:53:36;;;;;;;9.18;3.70;;;;;;;;;;5075935;28;20037;-66
2023/04/21 13:56:03;;;;;;;10.05;3.67;;;;;;;;;;5075899;28;20409;-64
2023/04/21 13:58:31;;;;;;;12.45;3.33;;;;;;;;;;5075732;28;20048;-64
2023/04/21 14:00:58;;;;;;;6.80;3.30;;;;;;;;;;5058242;28;20048;-65
2023/04/21 14:03:26;;;;;;;7.68;2.55;;;;;;;;;;5075697;28;20072;-66
2023/04/21 14:05:53;;;;;;;12.23;3.22;;;;;;;;;;5074564;28;20071;-65
2023/04/21 14:08:21;;;;;;;11.18;2.97;;;;;;;;;;5074252;28;20127;-65
2023/04/21 14:10:49;;;;;;;13.48;3.38;;;;;;;;;;5057707;28;20045;-65
2023/04/21 14:13:17;;;;;;;11.40;3.67;;;;;;;;;;5075454;28;20052;-65
2023/04/21 14:15:49;;;;;;;11.90;4.40;;;;;;;;;;5084666;28;20505;-65
2023/04/21 14:18:17;;;;;;;15.93;5.45;;;;;;;;;;5096011;28;20613;-65
2023/04/21 14:20:45;;;;;;;13.68;5.53;;;;;;;;;;5094441;28;20500;-65
2023/04/21 14:23:12;;;;;;;26.88;11.15;;;;;;;;;;5095649;28;20486;-65
2023/04/21 14:25:40;;;;;;;8.27;4.38;;;;;;;;;;5095550;28;20127;-67
2023/04/21 14:28:10;;;;;;;28.83;8.68;;;;;;;;;;5095849;28;20050;-66
2023/04/21 14:30:38;;;;;;;13.82;4.90;;;;;;;;;;5095504;28;20625;-66
2023/04/21 14:33:05;;;;;;;12.75;5.45;;;;;;;;;;5095576;28;20028;-66
2023/04/21 14:35:33;;;;;;;37.83;24.23;;;;;;;;;;5074351;28;20040;-67
2023/04/21 14:38:00;;;;;;;37.03;24.40;;;;;;;;;;5073742;28;20029;-67